Ralph Wenz Field
KPNA : now visible

Airfield :











YOU CAN JOIN US ON...

 
LOGIN :

Register | Disclaimer

   EN    FR    IT 

 









Legend :    VFR   Marginal VFR   IFR   Intensive IFR   Very Intensive IFR
Visi :
Ceiling :
>= 8 km
>= 3000ft
5 to 8 km
1000 to 3000 ft
1500m to 5 km
500 to 1000 ft
800 to 1500m
200 to 500 ft
< 800m
< 200 ft
Symbols :   Thunderstorms  Fog  Heavy snow  Heavy precipitations  Wind > 20 kt







- Airport Elevation : 7102 ft


KPNA - Ralph Wenz Field

CURRENT METAR :
  • 211735Z AUTO 31011KT 10SM SCT032 BKN046 OVC065 08/00 A3019 RMK AO2

EXPIRED METARs :
  • 211715Z AUTO 30008KT 10SM SCT030 BKN036 BKN045 08/00 A3019 RMK AO2
  • 211655Z AUTO 31011G15KT 10SM SCT028 SCT036 SCT043 08/01 A3019 RMK AO2
  • 211635Z AUTO 30013G16KT 10SM SCT022 SCT039 08/01 A3019 RMK AO2
  • 211615Z AUTO 29007KT 270V330 10SM CLR 07/01 A3019 RMK AO2
  • 211555Z AUTO 31011KT 10SM CLR 06/01 A3019 RMK AO2
  • 211535Z AUTO 31009KT 10SM CLR 05/01 A3018 RMK AO2
  • 211515Z AUTO 30007KT 10SM CLR 04/01 A3019 RMK AO2
  • 211455Z AUTO 31005KT 10SM CLR 03/01 A3019 RMK AO2

TAF KPNA
Valid from the 21 at 18:00 until the 22 at 18:00 UTC


211732Z 2118/2218 30010KT P6SM SCT025 BKN045
FM211900 30010G20KT P6SM VCSH SCT025 BKN040
FM220100 30008KT P6SM SCT040 BKN080
FM220800 VRB06KT P6SM BKN120 AMD LTD TO CLD VIS AND WIND
No reported NOTAMs for that airfield.



MET'MAP, your aeronautical weather chart ! - Copyright ORBIFLY December 2007 - Disclaimer

ORBIFLY MET'MAP TEAM :

Programming & Development : Alexandra Zaïnal
Concept & Development : Baudouin d'Aumeries
Co-Development & Prog : Marc-Olivier Méhu
Technical & hardware support : Manuel Goepfert

Contact : metmap@orbifly.com




SOURCES & CREDITS :

   NOAA       Earth
Advisory